Lesage, West Virginia
Current Conditions -  °F | °C
As of 6:51 PM on Thursday 18 Dec 2014 (Local Time) from KHTS Reporting Station
Overcast Overcast  
Wind Chill: -4°   Ceiling: 9500
Heat Index: -1°   Visibility: 10mi
Dew Point: -6°   Wind: 5mph
Humidity: 72%   Direction: 340°NNW
Pressure: 30.2"   Gusts: NA
Location:  38.51°N, 82.3°W
Report Text: KHTS 182351Z 34004KT 10SM OVC095 M01/M06 A3020 RMK AO2 SLP235 T10111056 10006 21011 53003
Loading
Personal Weather Stations






























Interactive Weather Map New forecast layout! Learn more

10-Day Weather Forecast

Advertisements
Track Severe Weather on mobile